createdAt,value
2023-05-17T00:00:11.433Z,6.00
2023-05-17T00:02:40.474Z,8.25
2023-05-17T00:05:11.684Z,9.20
2023-05-17T00:07:42.110Z,5.53
2023-05-17T00:10:11.439Z,8.27
2023-05-17T00:12:40.531Z,6.05
2023-05-17T00:15:10.430Z,7.82
2023-05-17T00:17:39.422Z,7.22
2023-05-17T00:20:09.373Z,9.63
2023-05-17T00:22:38.687Z,7.40
2023-05-17T00:25:09.739Z,8.45
2023-05-17T00:27:38.676Z,9.75
2023-05-17T00:30:09.050Z,9.85
2023-05-17T00:32:39.046Z,9.75
2023-05-17T00:35:08.777Z,8.15
2023-05-17T00:37:37.773Z,7.35
2023-05-17T00:40:09.694Z,8.68
2023-05-17T00:42:38.569Z,6.05
2023-05-17T00:45:08.695Z,9.25
2023-05-17T00:47:37.685Z,9.25
2023-05-17T00:50:07.848Z,13.18
2023-05-17T00:52:36.931Z,8.48
2023-05-17T00:55:06.381Z,8.48
2023-05-17T00:57:37.071Z,7.80
2023-05-17T01:00:07.088Z,10.82
2023-05-17T01:02:36.073Z,9.15
2023-05-17T01:05:06.148Z,11.50
2023-05-17T01:07:37.485Z,13.90
2023-05-17T01:10:08.092Z,9.70
2023-05-17T01:12:49.802Z,9.80
2023-05-17T01:15:25.275Z,13.98
2023-05-17T01:18:05.177Z,11.52
2023-05-17T01:20:39.149Z,14.18
2023-05-17T01:23:32.174Z,16.35
2023-05-17T01:26:08.707Z,16.80
2023-05-17T01:28:40.300Z,13.60
2023-05-17T01:31:10.270Z,14.82
2023-05-17T01:33:40.772Z,12.25
2023-05-17T01:36:10.730Z,15.43
2023-05-17T01:38:39.637Z,10.70
2023-05-17T01:41:17.848Z,11.43
2023-05-17T01:43:56.302Z,10.77
2023-05-17T01:46:29.636Z,19.58
2023-05-17T01:49:10.129Z,7.07
2023-05-17T01:51:45.986Z,17.65
2023-05-17T01:54:16.618Z,16.00
2023-05-17T01:56:53.791Z,10.07
2023-05-17T01:59:26.123Z,13.63
2023-05-17T02:02:03.980Z,10.35
2023-05-17T02:04:33.161Z,14.48
2023-05-17T02:07:04.295Z,11.52
2023-05-17T02:09:33.402Z,18.65
2023-05-17T02:12:08.511Z,9.65
2023-05-17T02:14:39.278Z,8.95
2023-05-17T02:17:08.929Z,11.00
2023-05-17T02:19:38.161Z,11.27
2023-05-17T02:22:09.122Z,7.90
2023-05-17T02:24:38.114Z,12.18
2023-05-17T02:27:07.685Z,12.25
2023-05-17T02:29:36.548Z,19.98
2023-05-17T02:32:07.834Z,9.38
2023-05-17T02:34:36.541Z,10.18
2023-05-17T02:37:05.725Z,12.98
2023-05-17T02:39:34.642Z,9.55
2023-05-17T02:42:03.577Z,14.00
2023-05-17T02:44:32.570Z,10.95
2023-05-17T02:47:01.430Z,12.88
2023-05-17T02:49:33.642Z,10.15
2023-05-17T02:52:02.577Z,14.93
2023-05-17T02:54:31.746Z,11.63
2023-05-17T02:57:01.331Z,11.63
2023-05-17T02:59:30.149Z,11.68
2023-05-17T03:01:59.263Z,13.55
2023-05-17T03:04:28.366Z,15.80
2023-05-17T03:06:58.931Z,14.27
2023-05-17T03:09:29.986Z,10.05
2023-05-17T03:11:59.676Z,13.02
2023-05-17T03:14:32.497Z,18.10
2023-05-17T03:17:01.700Z,18.33
2023-05-17T03:19:30.858Z,10.48
2023-05-17T03:22:01.154Z,14.80
2023-05-17T03:24:30.036Z,14.45
2023-05-17T03:26:58.938Z,14.70
2023-05-17T03:29:27.838Z,15.80
2023-05-17T03:31:57.065Z,14.38
2023-05-17T03:34:26.150Z,14.63
2023-05-17T03:36:55.294Z,16.52
2023-05-17T03:39:25.807Z,10.23
2023-05-17T03:41:54.985Z,14.55
2023-05-17T03:44:24.940Z,16.10
2023-05-17T03:46:55.330Z,17.35
2023-05-17T03:49:25.381Z,15.02
2023-05-17T03:51:57.377Z,15.55
2023-05-17T03:54:27.875Z,13.30
2023-05-17T03:56:57.028Z,17.67
2023-05-17T03:59:26.420Z,13.52
2023-05-17T04:01:55.369Z,15.02
2023-05-17T04:04:24.376Z,17.30
2023-05-17T04:06:53.494Z,14.20
2023-05-17T04:09:22.425Z,14.45
2023-05-17T04:11:52.715Z,19.60
2023-05-17T04:14:22.499Z,14.77
2023-05-17T04:16:51.638Z,14.00
2023-05-17T04:19:21.808Z,13.70
2023-05-17T04:21:52.714Z,17.05
2023-05-17T04:24:24.421Z,19.45
2023-05-17T04:26:55.594Z,11.25
2023-05-17T04:29:26.919Z,14.98
2023-05-17T04:31:55.962Z,15.85
2023-05-17T04:34:25.150Z,15.45
2023-05-17T04:36:56.559Z,14.88
2023-05-17T04:39:25.591Z,14.10
2023-05-17T04:41:55.973Z,14.35
2023-05-17T04:44:24.854Z,12.90
2023-05-17T04:46:54.461Z,13.70
2023-05-17T04:49:25.290Z,14.30
2023-05-17T04:51:54.977Z,13.38
2023-05-17T04:54:25.043Z,15.75
2023-05-17T04:56:55.405Z,10.60
2023-05-17T04:59:44.304Z,14.43
2023-05-17T05:02:14.318Z,21.88
2023-05-17T05:04:43.444Z,12.25
2023-05-17T05:07:14.465Z,29.63
2023-05-17T05:09:43.851Z,13.55
2023-05-17T05:12:15.222Z,12.70
2023-05-17T05:14:44.933Z,14.65
2023-05-17T05:17:13.780Z,24.70
2023-05-17T05:19:44.087Z,14.68
2023-05-17T05:22:13.262Z,13.50
2023-05-17T05:24:42.859Z,13.25
2023-05-17T05:27:11.846Z,13.90
2023-05-17T05:29:42.591Z,19.90
2023-05-17T05:32:11.531Z,11.02
2023-05-17T05:34:46.006Z,11.57
2023-05-17T05:37:17.230Z,12.80
2023-05-17T05:39:47.799Z,8.90
2023-05-17T05:42:17.088Z,12.27
2023-05-17T05:44:47.557Z,13.63
2023-05-17T05:47:17.671Z,12.77
2023-05-17T05:49:46.845Z,12.65
2023-05-17T05:52:16.093Z,13.48
2023-05-17T05:54:46.290Z,14.82
2023-05-17T05:57:15.344Z,17.75
2023-05-17T05:59:44.622Z,11.30
2023-05-17T06:02:15.051Z,13.00
2023-05-17T06:04:45.689Z,18.35
2023-05-17T06:07:15.280Z,16.30
2023-05-17T06:09:44.314Z,14.75
2023-05-17T06:12:13.246Z,9.52
2023-05-17T06:14:42.205Z,14.93
2023-05-17T06:17:11.177Z,11.90
2023-05-17T06:19:41.664Z,12.70
2023-05-17T06:22:10.748Z,11.63
2023-05-17T06:24:39.610Z,16.00
2023-05-17T06:27:08.618Z,12.35
2023-05-17T06:29:37.606Z,11.88
2023-05-17T06:32:07.658Z,11.05
2023-05-17T06:34:36.933Z,16.98
2023-05-17T06:37:07.573Z,12.50
2023-05-17T06:39:36.578Z,11.70
2023-05-17T06:42:06.248Z,9.93
2023-05-17T06:44:38.084Z,10.93
2023-05-17T06:47:06.923Z,8.77
2023-05-17T06:49:36.112Z,13.23
2023-05-17T06:52:06.673Z,9.40
2023-05-17T06:54:35.610Z,18.17
2023-05-17T06:57:04.896Z,12.98
2023-05-17T06:59:33.765Z,9.88
2023-05-17T07:02:02.688Z,12.75
2023-05-17T07:04:31.897Z,15.75
2023-05-17T07:07:01.201Z,11.05
2023-05-17T07:09:31.458Z,16.10
2023-05-17T07:12:00.580Z,18.38
2023-05-17T07:14:29.628Z,12.93
2023-05-17T07:16:58.588Z,11.93
2023-05-17T07:19:27.735Z,11.05
2023-05-17T07:21:56.815Z,8.43
2023-05-17T07:24:25.985Z,11.02
2023-05-17T07:26:58.561Z,10.82
2023-05-17T07:29:29.198Z,9.65
2023-05-17T07:31:58.245Z,8.48
2023-05-17T07:34:27.421Z,9.75
2023-05-17T07:36:56.279Z,9.90
2023-05-17T07:39:25.086Z,13.40
2023-05-17T07:41:55.613Z,10.98
2023-05-17T07:44:24.675Z,9.88
2023-05-17T07:46:53.698Z,8.40
2023-05-17T07:49:24.515Z,14.05
2023-05-17T07:51:53.469Z,10.38
2023-05-17T07:54:27.248Z,21.90
2023-05-17T07:56:57.719Z,15.68
2023-05-17T07:59:26.682Z,11.48
2023-05-17T08:01:55.622Z,9.57
2023-05-17T08:04:24.707Z,17.40
2023-05-17T08:06:55.565Z,10.35
2023-05-17T08:09:24.581Z,9.88
2023-05-17T08:11:53.557Z,14.68
2023-05-17T08:14:24.472Z,9.35
2023-05-17T08:16:53.578Z,13.55
2023-05-17T08:19:22.632Z,11.82
2023-05-17T08:21:51.845Z,10.18
2023-05-17T08:24:21.980Z,10.20
2023-05-17T08:26:51.206Z,10.63
2023-05-17T08:29:20.371Z,12.05
2023-05-17T08:31:51.532Z,10.38
2023-05-17T08:34:20.584Z,9.68
2023-05-17T08:36:49.708Z,10.38
2023-05-17T08:39:20.562Z,15.32
2023-05-17T08:41:50.157Z,10.95
2023-05-17T08:44:19.470Z,10.85
2023-05-17T08:46:53.594Z,10.82
2023-05-17T08:49:25.988Z,10.23
2023-05-17T08:54:24.560Z,7.97
2023-05-17T08:56:59.510Z,5.85
2023-05-17T08:59:34.673Z,7.25
2023-05-17T09:02:08.948Z,4.18
2023-05-17T09:04:39.811Z,7.90
2023-05-17T09:07:09.208Z,5.05
2023-05-17T09:09:38.353Z,10.40
2023-05-17T09:12:08.725Z,8.15
2023-05-17T09:14:38.543Z,7.45
2023-05-17T09:17:09.645Z,6.97
2023-05-17T09:19:46.553Z,5.60
2023-05-17T09:22:19.421Z,6.18
2023-05-17T09:25:10.079Z,4.82
2023-05-17T09:28:11.108Z,8.52
2023-05-17T09:30:49.428Z,9.15
2023-05-17T09:33:29.038Z,7.68
2023-05-17T09:36:23.856Z,8.43
2023-05-17T09:38:58.924Z,7.88
2023-05-17T09:41:28.567Z,9.10
2023-05-17T09:44:01.134Z,6.63
2023-05-17T09:46:30.326Z,12.30
2023-05-17T09:49:03.284Z,7.57
2023-05-17T09:51:36.586Z,8.85
2023-05-17T09:54:07.655Z,5.40
2023-05-17T09:56:37.069Z,6.07
2023-05-17T09:59:12.578Z,3.08
2023-05-17T10:01:43.405Z,3.40
2023-05-17T10:04:14.610Z,4.53
2023-05-17T10:06:51.412Z,3.78
2023-05-17T10:09:24.146Z,3.90
2023-05-17T10:11:56.526Z,8.55
2023-05-17T10:14:31.925Z,5.60
2023-05-17T10:17:03.189Z,5.97
2023-05-17T10:19:34.847Z,11.98
2023-05-17T10:22:21.255Z,8.30
2023-05-17T10:24:52.447Z,6.03
2023-05-17T10:27:22.928Z,3.53
2023-05-17T10:29:53.286Z,2.78
2023-05-17T10:32:27.105Z,4.82
2023-05-17T10:35:10.500Z,7.30
2023-05-17T10:37:41.695Z,5.90
2023-05-17T10:40:14.037Z,7.25
2023-05-17T10:42:46.376Z,6.70
2023-05-17T10:45:15.540Z,8.68
2023-05-17T10:47:46.369Z,5.50
2023-05-17T10:50:23.820Z,4.47
2023-05-17T10:52:55.941Z,6.03
2023-05-17T10:55:28.779Z,3.42
2023-05-17T10:58:17.615Z,7.35
2023-05-17T11:00:48.234Z,10.27
2023-05-17T11:03:19.597Z,6.80
2023-05-17T11:06:24.327Z,6.03
2023-05-17T11:09:16.071Z,10.23
2023-05-17T11:12:08.609Z,4.82
2023-05-17T11:14:53.331Z,8.13
2023-05-17T11:17:23.553Z,3.10
2023-05-17T11:20:06.813Z,7.20
2023-05-17T11:22:39.388Z,7.07
2023-05-17T11:25:10.520Z,6.10
2023-05-17T11:27:41.615Z,6.38
2023-05-17T11:30:18.397Z,13.18
2023-05-17T11:32:55.903Z,5.65
2023-05-17T11:35:28.199Z,6.10
2023-05-17T11:40:42.593Z,9.70
2023-05-17T11:43:16.081Z,6.57
2023-05-17T11:45:46.483Z,7.00
2023-05-17T11:48:16.423Z,4.68
2023-05-17T11:50:46.958Z,3.42
2023-05-17T11:53:17.350Z,5.18
2023-05-17T11:55:50.431Z,7.10
2023-05-17T11:58:21.100Z,5.22
2023-05-17T12:00:54.914Z,6.72
2023-05-17T12:03:25.650Z,3.40
2023-05-17T12:06:04.879Z,5.40
2023-05-17T12:08:35.369Z,4.18
2023-05-17T12:11:06.792Z,3.35
2023-05-17T12:32:34.102Z,10.45
2023-05-17T12:39:40.954Z,5.55
2023-05-17T12:42:11.122Z,3.80
2023-05-17T12:44:40.957Z,4.40
2023-05-17T12:47:11.781Z,4.97
2023-05-17T12:49:55.161Z,9.50
2023-05-17T12:52:24.111Z,4.05
2023-05-17T12:54:53.081Z,4.60
2023-05-17T12:57:22.094Z,6.05
2023-05-17T12:59:53.558Z,11.88
2023-05-17T13:02:23.950Z,2.72
2023-05-17T13:04:54.664Z,5.13
2023-05-17T13:07:24.947Z,2.58
2023-05-17T13:09:54.172Z,4.32
2023-05-17T13:12:25.078Z,5.35
2023-05-17T13:14:55.421Z,3.08
2023-05-17T13:17:27.652Z,5.78
2023-05-17T13:19:58.518Z,3.38
2023-05-17T13:22:28.415Z,5.55
2023-05-17T13:24:57.623Z,3.90
2023-05-17T13:27:26.676Z,3.47
2023-05-17T13:29:55.545Z,4.25
2023-05-17T13:32:25.010Z,3.63
2023-05-17T13:34:54.248Z,4.60
2023-05-17T13:37:24.614Z,5.95
2023-05-17T13:39:56.185Z,3.72
2023-05-17T13:42:25.159Z,2.45
2023-05-17T13:44:54.015Z,3.58
2023-05-17T13:47:23.137Z,4.20
2023-05-17T13:49:51.991Z,2.60
2023-05-17T13:52:20.972Z,2.65
2023-05-17T13:54:51.305Z,5.22
2023-05-17T13:57:20.161Z,5.45
2023-05-17T13:59:49.053Z,5.82
2023-05-17T14:02:18.412Z,5.13
2023-05-17T14:04:47.258Z,6.80
2023-05-17T14:07:16.114Z,5.30
2023-05-17T14:09:45.070Z,2.95
2023-05-17T14:12:15.415Z,2.85
2023-05-17T14:14:44.578Z,4.00
2023-05-17T14:17:13.643Z,3.95
2023-05-17T14:19:42.964Z,2.45
2023-05-17T14:22:13.729Z,3.72
2023-05-17T14:24:42.568Z,7.13
2023-05-17T14:27:11.694Z,5.38
2023-05-17T14:29:41.967Z,5.63
2023-05-17T14:32:12.916Z,3.00
2023-05-17T14:34:42.133Z,3.28
2023-05-17T14:37:11.299Z,3.67
2023-05-17T14:39:40.258Z,3.15
2023-05-17T14:42:09.360Z,4.90
2023-05-17T14:44:39.845Z,3.00
2023-05-17T14:47:10.182Z,5.47
2023-05-17T14:49:39.424Z,4.88
2023-05-17T14:52:08.222Z,3.03
2023-05-17T14:54:37.681Z,2.92
2023-05-17T14:57:07.100Z,5.28
2023-05-17T14:59:38.085Z,6.57
2023-05-17T15:02:07.051Z,4.78
2023-05-17T15:04:37.890Z,3.08
2023-05-17T15:07:07.166Z,2.97
2023-05-17T15:09:41.655Z,4.13
2023-05-17T15:12:13.108Z,3.53
2023-05-17T15:14:43.527Z,3.88
2023-05-17T15:17:12.512Z,3.78
2023-05-17T15:19:42.998Z,3.05
2023-05-17T15:22:12.240Z,3.55
2023-05-17T15:24:41.169Z,2.88
2023-05-17T15:27:13.056Z,6.93
2023-05-17T15:29:42.402Z,7.40
2023-05-17T15:32:11.394Z,5.40
2023-05-17T15:34:40.304Z,6.13
2023-05-17T15:37:10.592Z,4.50
2023-05-17T15:39:39.690Z,3.47
2023-05-17T15:42:08.772Z,5.63
2023-05-17T15:44:37.938Z,4.43
2023-05-17T15:47:06.936Z,3.88
2023-05-17T15:49:35.916Z,2.03
2023-05-17T15:52:04.954Z,5.90
2023-05-17T15:54:35.262Z,3.78
2023-05-17T15:57:04.173Z,4.32
2023-05-17T15:59:33.116Z,3.88
2023-05-17T16:02:02.029Z,4.68
2023-05-17T16:04:31.398Z,4.78
2023-05-17T16:07:00.589Z,3.13
2023-05-17T16:09:29.646Z,5.03
2023-05-17T16:12:00.347Z,2.85
2023-05-17T16:14:29.321Z,3.03
2023-05-17T16:16:58.384Z,3.55
2023-05-17T16:19:27.754Z,3.28
2023-05-17T16:21:58.074Z,9.50
2023-05-17T16:24:27.997Z,4.57
2023-05-17T16:26:57.450Z,4.07
2023-05-17T16:29:27.727Z,5.03
2023-05-17T16:31:56.827Z,3.67
2023-05-17T16:34:27.521Z,2.65
2023-05-17T16:36:56.762Z,3.45
2023-05-17T16:39:27.457Z,4.57
2023-05-17T16:41:56.546Z,8.23
2023-05-17T16:44:25.689Z,3.13
2023-05-17T16:46:56.374Z,3.08
2023-05-17T16:49:25.565Z,4.72
2023-05-17T16:51:54.558Z,5.30
2023-05-17T16:54:23.743Z,8.52
2023-05-17T16:56:52.915Z,7.32
2023-05-17T16:59:22.527Z,4.78
2023-05-17T17:01:51.687Z,3.35
2023-05-17T17:04:22.819Z,4.40
2023-05-17T17:06:52.434Z,5.20
2023-05-17T17:09:21.816Z,4.97
2023-05-17T17:11:50.872Z,5.82
2023-05-17T17:14:20.106Z,2.70
2023-05-17T17:16:49.216Z,4.18
2023-05-17T17:19:18.732Z,3.83
2023-05-17T17:21:49.391Z,6.38
2023-05-17T17:24:18.976Z,5.18
2023-05-17T17:26:50.103Z,5.25
2023-05-17T17:29:19.370Z,4.95
2023-05-17T17:31:48.432Z,4.63
2023-05-17T17:34:17.605Z,4.72
2023-05-17T17:36:48.120Z,8.68
2023-05-17T17:39:17.375Z,5.45
2023-05-17T17:41:46.391Z,8.25
2023-05-17T17:44:15.332Z,5.80
2023-05-17T17:46:44.370Z,4.80
2023-05-17T17:49:13.353Z,7.18
2023-05-17T17:51:42.307Z,5.20
2023-05-17T17:54:12.634Z,6.50
2023-05-17T17:56:41.894Z,4.55
2023-05-17T17:59:14.216Z,4.15
2023-05-17T18:01:44.304Z,6.40
2023-05-17T18:04:16.295Z,5.65
2023-05-17T18:06:48.302Z,4.13
2023-05-17T18:09:18.544Z,8.05
2023-05-17T18:11:50.437Z,4.72
2023-05-17T18:14:22.461Z,4.65
2023-05-17T18:16:51.746Z,6.18
2023-05-17T18:19:21.078Z,3.85
2023-05-17T18:21:50.778Z,6.03
2023-05-17T18:24:23.095Z,6.63
2023-05-17T18:29:20.678Z,4.40
2023-05-17T18:31:49.962Z,7.65
2023-05-17T18:34:20.012Z,3.00
2023-05-17T18:36:50.173Z,6.00
2023-05-17T18:39:20.599Z,3.10
2023-05-17T18:41:49.805Z,5.10
2023-05-17T18:44:20.050Z,6.10
2023-05-17T18:46:49.979Z,4.78
2023-05-17T18:49:22.624Z,4.30
2023-05-17T18:51:52.413Z,6.60
2023-05-17T18:54:23.642Z,5.43
2023-05-17T18:56:52.646Z,4.70
2023-05-17T18:59:21.756Z,5.00
2023-05-17T19:01:50.848Z,9.25
2023-05-17T19:04:20.327Z,7.75
2023-05-17T19:06:51.340Z,8.48
2023-05-17T19:09:20.395Z,4.03
2023-05-17T19:11:51.343Z,14.68
2023-05-17T19:14:20.759Z,6.55
2023-05-17T19:16:52.000Z,3.45
2023-05-17T19:19:22.343Z,4.60
2023-05-17T19:21:51.650Z,6.82
2023-05-17T19:24:21.906Z,5.18
2023-05-17T19:26:58.801Z,10.85
2023-05-17T19:29:29.768Z,5.13
2023-05-17T19:31:59.487Z,6.45
2023-05-17T19:34:29.384Z,5.30
2023-05-17T19:37:44.204Z,4.68
2023-05-17T19:40:18.964Z,11.98
2023-05-17T19:42:51.179Z,6.18
2023-05-17T19:45:21.041Z,7.90
2023-05-17T19:47:51.635Z,8.45
2023-05-17T19:54:50.727Z,6.88
2023-05-17T19:57:21.354Z,6.97
2023-05-17T20:00:24.439Z,7.43
2023-05-17T20:03:00.891Z,5.68
2023-05-17T20:05:30.057Z,5.63
2023-05-17T20:08:02.711Z,8.82
2023-05-17T20:10:32.346Z,12.40
2023-05-17T20:13:06.895Z,4.82
2023-05-17T20:15:37.398Z,7.07
2023-05-17T20:18:09.139Z,7.47
2023-05-17T20:20:41.833Z,5.50
2023-05-17T20:23:13.502Z,9.35
2023-05-17T20:25:42.841Z,7.43
2023-05-17T20:28:13.026Z,7.75
2023-05-17T20:30:47.698Z,6.32
2023-05-17T20:33:17.344Z,10.50
2023-05-17T20:35:46.894Z,8.65
2023-05-17T20:38:15.878Z,7.20
2023-05-17T20:40:44.835Z,7.35
2023-05-17T20:43:14.609Z,6.70
2023-05-17T20:45:45.984Z,6.78
2023-05-17T20:51:20.019Z,5.80
2023-05-17T20:53:49.383Z,7.18
2023-05-17T20:56:19.385Z,9.48
2023-05-17T20:58:48.988Z,7.13
2023-05-17T21:01:19.395Z,9.90
2023-05-17T21:03:49.804Z,6.47
2023-05-17T21:06:19.421Z,10.57
2023-05-17T21:08:48.940Z,8.10
2023-05-17T21:11:26.637Z,9.18
2023-05-17T21:14:23.015Z,7.32
2023-05-17T21:16:57.670Z,6.80
2023-05-17T21:19:57.056Z,8.70
2023-05-17T21:23:05.632Z,9.10
2023-05-17T21:25:42.253Z,8.25
2023-05-17T21:28:12.236Z,7.72
2023-05-17T21:30:55.387Z,5.95
2023-05-17T21:33:30.182Z,11.95
2023-05-17T21:36:06.317Z,8.98
2023-05-17T21:38:50.402Z,10.57
2023-05-17T21:41:23.953Z,6.43
2023-05-17T21:43:56.460Z,6.10
2023-05-17T21:46:26.866Z,8.93
2023-05-17T21:49:37.161Z,5.50
2023-05-17T21:52:19.725Z,6.70
2023-05-17T21:54:57.440Z,7.80
2023-05-17T21:57:28.858Z,8.05
2023-05-17T22:00:06.126Z,6.65
2023-05-17T22:03:28.287Z,9.13
2023-05-17T22:06:28.974Z,11.95
2023-05-17T22:15:52.017Z,7.18
2023-05-17T22:22:59.038Z,7.93
2023-05-17T22:25:32.545Z,7.25
2023-05-17T22:28:06.841Z,5.50
2023-05-17T22:30:36.360Z,8.63
2023-05-17T22:33:06.513Z,8.10
2023-05-17T22:35:36.425Z,10.52
2023-05-17T22:38:05.866Z,4.70
2023-05-17T22:40:36.720Z,4.88
2023-05-17T22:43:08.388Z,9.02
2023-05-17T22:45:37.954Z,9.65
2023-05-17T22:48:07.963Z,10.05
2023-05-17T22:51:01.841Z,9.43
2023-05-17T22:53:38.880Z,8.52
2023-05-17T22:56:10.125Z,9.45
2023-05-17T22:58:39.728Z,6.95
2023-05-17T23:04:07.614Z,7.40
2023-05-17T23:07:15.568Z,5.55
2023-05-17T23:10:07.081Z,9.57
2023-05-17T23:12:38.777Z,6.00
2023-05-17T23:15:44.089Z,4.63
2023-05-17T23:18:37.902Z,7.32
2023-05-17T23:21:22.343Z,8.35
2023-05-17T23:23:53.716Z,7.72
2023-05-17T23:26:24.860Z,7.55
2023-05-17T23:28:55.665Z,5.75
2023-05-17T23:31:26.001Z,6.28
2023-05-17T23:33:55.696Z,6.85
2023-05-17T23:36:24.988Z,7.68
2023-05-17T23:38:54.341Z,9.00
2023-05-17T23:41:25.549Z,7.03
2023-05-17T23:43:57.274Z,8.43
2023-05-17T23:46:34.855Z,11.45
2023-05-17T23:49:11.247Z,9.52
2023-05-17T23:51:51.459Z,9.90
2023-05-17T23:54:22.376Z,10.30
2023-05-17T23:56:52.160Z,8.45
2023-05-17T23:59:24.511Z,7.35
